Time;durP1;ratioP1;P1;durP2;ratioP2;P2;SDS_P1;SDS_P2;PMS_P1;PMS_P2;Temp;Humidity;BMP_temperature;BMP_pressure;BME280_temperature;BME280_humidity;BME280_pressure;Samples;Min_cycle;Max_cycle;Signal;HPM_P1;HPM_P2
2021/10/03 00:00:48;;;;;;;18.02;8.65;;;;;;;19.94;66.82;97358.38;5069667;28;20017;-88
2021/10/03 00:03:22;;;;;;;19.23;8.23;;;;;;;19.97;66.50;97350.13;5067540;28;20036;-88
2021/10/03 00:05:51;;;;;;;19.48;9.30;;;;;;;19.84;67.46;97349.34;5065780;28;20072;-88
2021/10/03 00:08:17;;;;;;;16.05;9.52;;;;;;;19.91;66.58;97358.63;5067769;28;20096;-88
2021/10/03 00:10:42;;;;;;;22.17;9.45;;;;;;;20.01;65.98;97332.91;5067895;28;20028;-88
2021/10/03 00:13:08;;;;;;;21.88;9.15;;;;;;;20.05;65.97;97338.84;5067985;28;20346;-88
2021/10/03 00:15:36;;;;;;;16.45;8.85;;;;;;;19.99;66.14;97345.50;5069876;28;20016;-88
2021/10/03 00:18:03;;;;;;;14.98;8.60;;;;;;;19.95;66.51;97349.38;5067391;28;20028;-88
2021/10/03 00:20:30;;;;;;;17.92;9.35;;;;;;;19.97;66.12;97351.94;5067398;28;20032;-88
2021/10/03 00:22:56;;;;;;;21.48;8.57;;;;;;;19.96;66.02;97344.91;5068072;28;20017;-88
2021/10/03 00:25:25;;;;;;;17.75;8.98;;;;;;;20.05;65.70;97342.38;5067333;28;20079;-88
2021/10/03 00:27:52;;;;;;;17.73;8.23;;;;;;;20.03;65.78;97352.31;5067549;28;20059;-88
2021/10/03 00:30:18;;;;;;;16.20;8.48;;;;;;;20.00;65.64;97347.19;5063982;28;20078;-88
2021/10/03 00:32:43;;;;;;;17.13;9.02;;;;;;;19.95;65.83;97338.72;5067315;28;20050;-88
2021/10/03 00:35:09;;;;;;;15.77;8.48;;;;;;;19.94;66.05;97346.84;5067569;28;20025;-88
2021/10/03 00:37:34;;;;;;;23.80;8.82;;;;;;;19.97;66.24;97351.94;5067464;28;20071;-88
2021/10/03 00:40:00;;;;;;;28.90;9.38;;;;;;;19.98;66.22;97343.81;5065956;28;20084;-88
2021/10/03 00:42:26;;;;;;;15.13;7.95;;;;;;;19.96;66.47;97352.91;5068017;28;20024;-88
2021/10/03 00:44:52;;;;;;;20.77;9.60;;;;;;;19.92;66.46;97344.28;5065603;28;20028;-88
2021/10/03 00:47:17;;;;;;;16.23;8.63;;;;;;;19.93;66.60;97343.31;5065524;28;20271;-88
2021/10/03 00:49:44;;;;;;;14.05;8.75;;;;;;;19.84;67.00;97338.66;5065447;28;20021;-88
2021/10/03 00:52:10;;;;;;;18.65;8.65;;;;;;;19.82;66.67;97340.63;5067934;28;20253;-88
2021/10/03 00:54:36;;;;;;;17.85;9.02;;;;;;;19.80;66.55;97337.19;5069679;28;20023;-88
2021/10/03 00:57:02;;;;;;;17.77;8.70;;;;;;;19.78;66.75;97328.47;5063764;28;20025;-88
2021/10/03 00:59:29;;;;;;;16.40;9.38;;;;;;;19.79;66.89;97332.84;5063705;28;20017;-88
2021/10/03 01:01:54;;;;;;;21.08;9.25;;;;;;;19.72;67.53;97328.94;5065298;28;20393;-88
2021/10/03 01:04:20;;;;;;;16.65;9.45;;;;;;;19.74;66.89;97312.81;5079963;22;20037;-65
2021/10/03 01:06:46;;;;;;;16.70;7.53;;;;;;;19.76;66.79;97322.41;5075950;28;20016;-65
2021/10/03 01:09:12;;;;;;;13.93;7.88;;;;;;;19.78;66.93;97320.47;5071282;28;20024;-65
2021/10/03 01:11:37;;;;;;;14.88;8.00;;;;;;;19.91;66.26;97312.34;5079677;28;20017;-65
2021/10/03 01:14:03;;;;;;;15.13;7.68;;;;;;;19.89;66.09;97322.28;5076406;28;20054;-65
2021/10/03 01:16:28;;;;;;;23.08;8.68;;;;;;;19.83;66.43;97326.28;5077314;28;20013;-65
2021/10/03 01:18:56;;;;;;;15.23;8.05;;;;;;;19.86;65.77;97328.72;5079762;28;20338;-65
2021/10/03 01:21:22;;;;;;;18.65;8.75;;;;;;;19.85;66.04;97311.00;5081117;28;20333;-65
2021/10/03 01:23:48;;;;;;;16.30;8.65;;;;;;;19.85;65.95;97323.50;5079539;28;20012;-65
2021/10/03 01:26:13;;;;;;;18.05;7.40;;;;;;;19.87;66.03;97306.38;5072973;28;20020;-65
2021/10/03 01:28:39;;;;;;;19.63;8.43;;;;;;;19.85;65.93;97311.00;5085409;28;20012;-65
2021/10/03 01:31:06;;;;;;;18.95;8.90;;;;;;;19.97;65.33;97315.41;5074426;28;20066;-65
2021/10/03 01:33:33;;;;;;;13.00;7.75;;;;;;;19.93;66.15;97313.09;5073945;28;20033;-65
2021/10/03 01:35:58;;;;;;;16.48;8.38;;;;;;;19.86;65.77;97307.38;5078146;28;20330;-65
2021/10/03 01:38:25;;;;;;;17.00;8.15;;;;;;;19.90;65.40;97308.81;5076699;28;20020;-65
2021/10/03 01:40:51;;;;;;;21.90;8.18;;;;;;;19.97;64.63;97304.72;5070800;28;20020;-65
2021/10/03 01:43:17;;;;;;;18.08;7.43;;;;;;;19.96;65.25;97300.34;5070871;28;20024;-65
2021/10/03 01:45:43;;;;;;;19.80;8.82;;;;;;;19.89;65.69;97298.25;5076685;28;20016;-65
2021/10/03 01:48:13;;;;;;;20.73;8.13;;;;;;;19.85;65.43;97304.81;5074840;28;20206;-65
2021/10/03 01:50:43;;;;;;;14.93;7.75;;;;;;;19.81;65.73;97303.34;5083485;28;20024;-65
2021/10/03 01:53:11;;;;;;;20.15;8.02;;;;;;;19.80;65.78;97290.97;5080191;28;20338;-65
2021/10/03 01:55:38;;;;;;;16.27;7.75;;;;;;;19.73;65.89;97295.94;5075248;28;20308;-65
2021/10/03 01:58:05;;;;;;;16.08;8.20;;;;;;;19.74;65.62;97294.94;5072378;28;20044;-65
2021/10/03 02:00:31;;;;;;;20.63;8.38;;;;;;;19.74;65.60;97284.28;5075120;28;20025;-65
2021/10/03 02:03:01;;;;;;;12.98;7.55;;;;;;;19.74;65.45;97291.44;5076319;28;20016;-65
2021/10/03 02:05:27;;;;;;;14.32;7.15;;;;;;;19.72;64.90;97280.91;5072433;28;20055;-65
2021/10/03 02:07:53;;;;;;;13.70;7.43;;;;;;;19.67;65.67;97280.38;5073262;28;20021;-65
2021/10/03 02:10:19;;;;;;;16.48;7.07;;;;;;;19.64;65.76;97280.63;5074798;28;20347;-65
2021/10/03 02:12:47;;;;;;;15.65;7.35;;;;;;;19.54;65.69;97274.28;5073116;28;20211;-65
2021/10/03 02:15:13;;;;;;;13.23;7.15;;;;;;;19.53;65.71;97283.28;5071487;28;20371;-65
2021/10/03 02:17:38;;;;;;;14.40;7.35;;;;;;;19.41;66.30;97268.19;5078054;28;20016;-65
2021/10/03 02:20:05;;;;;;;15.27;6.82;;;;;;;19.35;66.77;97267.78;5068254;28;20013;-65
2021/10/03 02:22:31;;;;;;;14.07;7.00;;;;;;;19.29;66.93;97269.09;5071453;28;20013;-65
2021/10/03 02:24:56;;;;;;;16.23;7.32;;;;;;;19.38;65.64;97257.75;5074065;28;20188;-65
2021/10/03 02:27:25;;;;;;;12.13;7.35;;;;;;;19.41;65.81;97262.84;5069503;28;20024;-65
2021/10/03 02:29:52;;;;;;;13.40;7.28;;;;;;;19.48;65.59;97252.53;5076803;28;20016;-65
2021/10/03 02:32:17;;;;;;;16.90;7.38;;;;;;;19.50;65.75;97246.13;5075226;28;20020;-65
2021/10/03 02:34:43;;;;;;;14.27;7.57;;;;;;;19.49;65.30;97247.09;5071937;28;20251;-65
2021/10/03 02:37:08;;;;;;;16.05;7.30;;;;;;;19.44;65.16;97256.41;5079177;28;20016;-65
2021/10/03 02:39:34;;;;;;;10.88;6.57;;;;;;;19.48;65.05;97242.72;5071984;28;20023;-65
2021/10/03 02:41:59;;;;;;;14.35;7.25;;;;;;;19.32;66.50;97242.19;5078476;28;20008;-65
2021/10/03 02:44:26;;;;;;;10.93;6.55;;;;;;;19.26;66.53;97245.31;5070748;28;20031;-65
2021/10/03 02:46:51;;;;;;;15.27;7.40;;;;;;;19.15;67.33;97237.28;5073535;28;20041;-65
2021/10/03 02:49:17;;;;;;;13.60;6.90;;;;;;;19.04;67.72;97237.19;5074775;28;20251;-65
2021/10/03 02:51:42;;;;;;;14.75;6.88;;;;;;;19.05;67.81;97233.59;5071826;28;20047;-65
2021/10/03 02:54:08;;;;;;;14.60;7.03;;;;;;;18.92;68.18;97222.16;5069852;28;20040;-65
2021/10/03 02:56:33;;;;;;;14.73;6.70;;;;;;;18.83;68.90;97233.50;5071660;28;20257;-65
2021/10/03 02:58:59;;;;;;;11.40;6.43;;;;;;;18.77;68.44;97229.44;5075116;28;20028;-65
2021/10/03 03:01:25;;;;;;;16.02;8.07;;;;;;;18.83;67.83;97217.50;5073245;28;20032;-65
2021/10/03 03:03:51;;;;;;;14.27;6.80;;;;;;;18.79;68.07;97216.00;5070886;28;20192;-65
2021/10/03 03:06:17;;;;;;;13.23;7.15;;;;;;;18.83;68.21;97229.00;5069862;28;20208;-65
2021/10/03 03:08:42;;;;;;;14.93;6.68;;;;;;;18.81;67.33;97219.41;5071938;28;20088;-65
2021/10/03 03:11:08;;;;;;;17.10;7.13;;;;;;;18.75;68.18;97215.41;5074962;28;20089;-65
2021/10/03 03:13:34;;;;;;;10.95;6.43;;;;;;;18.71;67.96;97213.06;5073213;28;20276;-65
2021/10/03 03:15:59;;;;;;;12.00;6.30;;;;;;;18.71;68.04;97215.72;5075390;28;20029;-65
2021/10/03 03:18:25;;;;;;;12.82;6.78;;;;;;;18.70;67.59;97216.72;5072155;28;20224;-65
2021/10/03 03:20:50;;;;;;;14.25;6.88;;;;;;;18.68;68.03;97207.97;5076252;28;20206;-65
2021/10/03 03:23:16;;;;;;;13.68;6.82;;;;;;;18.60;69.15;97210.31;5074256;28;20315;-65
2021/10/03 03:25:42;;;;;;;11.30;5.88;;;;;;;18.60;67.98;97211.19;5074194;28;20020;-65
2021/10/03 03:28:07;;;;;;;16.27;6.20;;;;;;;18.57;69.00;97205.25;5078047;28;20083;-65
2021/10/03 03:30:34;;;;;;;15.48;6.50;;;;;;;18.51;69.09;97200.38;5068239;28;20035;-65
2021/10/03 03:32:59;;;;;;;10.27;6.25;;;;;;;18.42;70.31;97201.88;5069496;28;20029;-65
2021/10/03 03:35:25;;;;;;;12.73;7.15;;;;;;;18.37;69.53;97195.19;5074685;28;20350;-65
2021/10/03 03:37:51;;;;;;;11.77;5.93;;;;;;;18.42;69.10;97201.03;5072990;28;20104;-65
2021/10/03 03:40:18;;;;;;;11.85;6.28;;;;;;;18.41;68.89;97184.19;5078232;28;20066;-65
2021/10/03 03:42:44;;;;;;;13.57;7.03;;;;;;;18.35;70.53;97194.44;5070906;28;20036;-65
2021/10/03 03:45:10;;;;;;;9.55;5.63;;;;;;;18.37;69.18;97197.84;5075338;28;20315;-65
2021/10/03 03:47:36;;;;;;;18.88;6.70;;;;;;;18.35;69.47;97191.78;5069215;28;20028;-65
2021/10/03 03:50:03;;;;;;;13.13;6.25;;;;;;;18.31;69.79;97185.81;5074263;28;20075;-65
2021/10/03 03:52:28;;;;;;;14.13;6.57;;;;;;;18.32;69.79;97184.00;5073207;28;20058;-65
2021/10/03 03:54:54;;;;;;;13.05;6.63;;;;;;;18.28;70.24;97177.19;5069205;28;20040;-65
2021/10/03 03:57:19;;;;;;;12.65;6.07;;;;;;;18.26;70.54;97173.78;5072989;28;20025;-65
2021/10/03 03:59:45;;;;;;;10.75;6.20;;;;;;;18.25;69.91;97172.94;5076079;28;20096;-65
2021/10/03 04:02:10;;;;;;;13.38;6.55;;;;;;;18.27;69.82;97172.81;5071492;28;20050;-65
2021/10/03 04:04:36;;;;;;;14.48;6.47;;;;;;;18.23;69.89;97174.00;5071841;28;20271;-65
2021/10/03 04:07:02;;;;;;;12.60;5.88;;;;;;;18.23;69.39;97171.34;5071841;28;20223;-65
2021/10/03 04:09:27;;;;;;;11.85;6.38;;;;;;;18.17;70.21;97171.78;5071735;28;20027;-65
2021/10/03 04:11:53;;;;;;;11.10;6.50;;;;;;;18.20;69.88;97174.22;5074785;28;20091;-65
2021/10/03 04:14:18;;;;;;;14.00;6.70;;;;;;;18.18;70.07;97169.03;5072927;28;20021;-65
2021/10/03 04:16:43;;;;;;;16.77;6.65;;;;;;;18.15;70.65;97166.56;5073109;28;20012;-65
2021/10/03 04:19:09;;;;;;;10.38;6.25;;;;;;;18.22;70.39;97161.66;5077650;28;20242;-65
2021/10/03 04:21:34;;;;;;;11.23;6.07;;;;;;;18.16;70.25;97167.44;5081969;28;20142;-65
2021/10/03 04:23:59;;;;;;;13.43;6.65;;;;;;;18.06;72.52;97167.25;5076345;28;20017;-65
2021/10/03 04:26:25;;;;;;;18.80;5.82;;;;;;;18.02;71.16;97163.09;5072843;28;20023;-65
2021/10/03 04:28:51;;;;;;;15.25;6.20;;;;;;;18.05;70.29;97160.22;5079799;28;20055;-65
2021/10/03 04:31:17;;;;;;;14.38;6.43;;;;;;;18.14;70.02;97158.69;5074577;28;20209;-65
2021/10/03 04:33:42;;;;;;;13.48;6.43;;;;;;;18.13;69.67;97157.00;5073625;28;20053;-65
2021/10/03 04:36:11;;;;;;;11.25;6.43;;;;;;;18.13;69.72;97157.00;5075795;28;20029;-65
2021/10/03 04:38:38;;;;;;;12.85;5.55;;;;;;;18.15;69.54;97155.06;5070693;28;20022;-65
2021/10/03 04:41:04;;;;;;;13.15;6.22;;;;;;;18.17;69.35;97158.47;5074137;28;20147;-65
2021/10/03 04:43:29;;;;;;;11.88;6.20;;;;;;;18.14;69.69;97150.72;5076776;28;20009;-65
2021/10/03 04:45:55;;;;;;;12.25;6.43;;;;;;;18.25;68.68;97145.44;5078564;28;20051;-65
2021/10/03 04:48:20;;;;;;;11.20;6.65;;;;;;;18.20;68.70;97152.94;5079437;28;20147;-65
2021/10/03 04:50:46;;;;;;;12.82;6.43;;;;;;;18.16;69.81;97157.63;5078621;28;20024;-65
2021/10/03 04:53:11;;;;;;;10.85;6.13;;;;;;;18.16;69.22;97151.47;5078828;28;20235;-65
2021/10/03 04:55:37;;;;;;;13.80;5.88;;;;;;;18.18;68.76;97149.53;5066412;28;20319;-65
2021/10/03 04:58:02;;;;;;;12.13;6.05;;;;;;;18.17;69.30;97153.16;5065203;28;20023;-65
2021/10/03 05:00:28;;;;;;;11.65;6.05;;;;;;;18.19;69.04;97161.88;5067870;28;20028;-65
2021/10/03 05:02:54;;;;;;;9.07;5.35;;;;;;;18.16;69.88;97152.28;5073777;28;20060;-65
2021/10/03 05:05:21;;;;;;;12.20;6.22;;;;;;;18.14;68.81;97153.38;5075077;28;20107;-65
2021/10/03 05:07:46;;;;;;;11.77;6.55;;;;;;;18.24;68.31;97143.75;5071906;28;20020;-65
2021/10/03 05:10:12;;;;;;;12.00;5.90;;;;;;;18.22;68.19;97141.19;5076094;28;20016;-65
2021/10/03 05:12:37;;;;;;;13.23;5.68;;;;;;;18.37;67.49;97137.44;5078303;28;20032;-65
2021/10/03 05:15:04;;;;;;;11.15;6.25;;;;;;;18.37;67.19;97139.25;5077297;28;20327;-65
2021/10/03 05:17:31;;;;;;;11.18;5.80;;;;;;;18.44;66.69;97140.50;5079455;28;20051;-65
2021/10/03 05:19:56;;;;;;;11.43;6.20;;;;;;;18.36;67.84;97142.84;5070044;28;20095;-65
2021/10/03 05:22:24;;;;;;;13.93;5.85;;;;;;;18.42;67.27;97142.44;5073780;28;20145;-65
2021/10/03 05:24:53;;;;;;;13.02;5.88;;;;;;;18.34;67.63;97152.75;5074262;28;20032;-65
2021/10/03 05:27:19;;;;;;;11.63;5.95;;;;;;;18.32;67.54;97144.06;5075657;28;20020;-65
2021/10/03 05:29:46;;;;;;;10.85;5.75;;;;;;;18.36;66.88;97140.19;5075015;28;20028;-65
2021/10/03 05:32:12;;;;;;;11.68;6.03;;;;;;;18.32;67.59;97144.88;5079244;28;20316;-65
2021/10/03 05:34:38;;;;;;;11.52;6.47;;;;;;;18.42;66.64;97137.94;5078869;28;20016;-65
2021/10/03 05:37:03;;;;;;;12.38;5.72;;;;;;;18.46;67.19;97138.56;5071184;28;20031;-65
2021/10/03 05:39:29;;;;;;;10.40;5.75;;;;;;;18.42;66.41;97139.78;5072684;28;20025;-65
2021/10/03 05:41:54;;;;;;;13.80;6.25;;;;;;;18.38;66.95;97135.63;5073815;28;20059;-65
2021/10/03 05:44:20;;;;;;;10.38;6.03;;;;;;;18.38;67.22;97130.31;5075136;28;20031;-65
2021/10/03 05:46:45;;;;;;;11.38;5.80;;;;;;;18.40;66.65;97139.03;5073394;28;20063;-65
2021/10/03 05:49:10;;;;;;;19.40;6.78;;;;;;;18.36;66.90;97142.84;5071755;28;20044;-65
2021/10/03 05:51:36;;;;;;;10.75;5.85;;;;;;;18.35;67.63;97149.16;5078828;28;20133;-65
2021/10/03 05:54:05;;;;;;;12.93;5.65;;;;;;;18.34;67.17;97140.31;5074202;28;20024;-65
2021/10/03 05:56:31;;;;;;;10.98;5.80;;;;;;;18.34;66.84;97147.44;5076571;28;20027;-65
2021/10/03 05:58:56;;;;;;;20.75;6.20;;;;;;;18.40;66.42;97142.53;5070071;28;20032;-65
2021/10/03 06:01:22;;;;;;;13.63;6.00;;;;;;;18.35;67.06;97143.81;5074406;28;20020;-65
2021/10/03 06:03:47;;;;;;;11.48;6.00;;;;;;;18.31;67.04;97150.31;5069296;28;20044;-65
2021/10/03 06:06:12;;;;;;;11.88;5.47;;;;;;;18.32;66.57;97152.03;5073314;28;20052;-65
2021/10/03 06:08:38;;;;;;;9.68;5.80;;;;;;;18.32;66.83;97152.03;5073845;28;20039;-65
2021/10/03 06:11:03;;;;;;;10.38;5.32;;;;;;;18.29;67.07;97152.25;5071820;28;20274;-65
2021/10/03 06:13:29;;;;;;;11.25;6.07;;;;;;;18.32;66.87;97157.38;5073268;28;20056;-65
2021/10/03 06:15:55;;;;;;;11.60;5.88;;;;;;;18.29;67.41;97160.25;5073333;28;20023;-65
2021/10/03 06:18:21;;;;;;;15.70;6.43;;;;;;;18.32;66.52;97166.19;5074774;28;20024;-65
2021/10/03 06:20:46;;;;;;;9.52;5.70;;;;;;;18.29;67.31;97169.06;5074215;28;20020;-65
2021/10/03 06:23:12;;;;;;;12.65;5.80;;;;;;;18.31;66.53;97171.63;5074048;28;20199;-65
2021/10/03 06:25:37;;;;;;;14.68;5.78;;;;;;;18.29;67.32;97178.91;5076905;28;20013;-65
2021/10/03 06:28:04;;;;;;;10.52;4.97;;;;;;;18.25;67.78;97182.72;5072172;28;20323;-65
2021/10/03 06:30:30;;;;;;;12.73;5.95;;;;;;;18.22;67.74;97183.81;5074494;28;20017;-65
2021/10/03 06:32:57;;;;;;;15.63;6.20;;;;;;;18.17;67.82;97185.09;5074548;28;20233;-65
2021/10/03 06:35:23;;;;;;;12.77;5.50;;;;;;;18.19;67.36;97183.19;5070920;28;20088;-65
2021/10/03 06:37:48;;;;;;;12.40;5.75;;;;;;;18.21;66.88;97184.78;5071893;28;20070;-65
2021/10/03 06:40:14;;;;;;;11.15;5.72;;;;;;;18.19;67.20;97186.69;5074823;28;20024;-65
2021/10/03 06:42:40;;;;;;;8.18;4.70;;;;;;;18.24;67.34;97189.03;5070398;28;20040;-65
2021/10/03 06:45:06;;;;;;;11.00;5.28;;;;;;;18.25;66.32;97188.91;5073872;28;20211;-65
2021/10/03 06:47:32;;;;;;;11.18;5.28;;;;;;;18.28;66.24;97188.69;5073818;28;20020;-65
2021/10/03 06:49:57;;;;;;;12.20;5.90;;;;;;;18.25;67.65;97188.03;5071993;28;20196;-65
2021/10/03 06:52:22;;;;;;;11.65;5.53;;;;;;;18.30;65.86;97191.25;5072920;28;20055;-65
2021/10/03 06:54:48;;;;;;;12.07;5.43;;;;;;;18.31;66.22;97192.94;5072779;28;20433;-65
2021/10/03 06:57:13;;;;;;;9.45;5.55;;;;;;;18.37;65.60;97193.38;5073395;28;20012;-65
2021/10/03 06:59:38;;;;;;;11.60;5.75;;;;;;;18.43;65.68;97197.41;5068034;28;20043;-64
2021/10/03 07:02:14;;;;;;;14.27;5.85;;;;;;;18.47;65.77;97201.53;5069560;28;20080;-64
2021/10/03 07:04:40;;;;;;;15.23;6.10;;;;;;;18.43;65.88;97202.72;5069969;28;20048;-66
2021/10/03 07:07:05;;;;;;;10.25;5.45;;;;;;;18.46;65.67;97213.16;5066866;28;20028;-66
2021/10/03 07:09:31;;;;;;;10.13;5.22;;;;;;;18.49;65.84;97212.94;5070150;28;20013;-66
2021/10/03 07:11:56;;;;;;;10.98;5.78;;;;;;;18.47;65.70;97209.53;5070882;28;20062;-66
2021/10/03 07:14:22;;;;;;;12.30;5.78;;;;;;;18.45;66.59;97217.63;5066490;28;20016;-66
2021/10/03 07:16:48;;;;;;;12.30;5.82;;;;;;;18.49;65.61;97212.94;5068819;28;20062;-66
2021/10/03 07:19:14;;;;;;;11.98;5.60;;;;;;;18.49;66.10;97212.94;5077908;28;20087;-66
2021/10/03 07:21:39;;;;;;;12.38;5.63;;;;;;;18.49;65.83;97213.81;5064837;28;20009;-66
2021/10/03 07:24:05;;;;;;;9.45;5.22;;;;;;;18.50;65.24;97209.31;5062544;28;20028;-66
2021/10/03 07:26:30;;;;;;;13.63;5.85;;;;;;;18.49;65.88;97207.63;5072198;28;20025;-66
2021/10/03 07:28:56;;;;;;;10.05;5.85;;;;;;;18.46;65.76;97210.50;5071608;28;20036;-66
2021/10/03 07:31:21;;;;;;;9.65;4.90;;;;;;;18.46;65.68;97210.50;5074621;28;20024;-66
2021/10/03 07:33:47;;;;;;;8.68;4.75;;;;;;;18.47;66.06;97220.19;5070717;28;20116;-66
2021/10/03 07:36:16;;;;;;;9.70;5.40;;;;;;;18.46;66.27;97223.81;5076801;28;20177;-66
2021/10/03 07:38:42;;;;;;;13.30;5.78;;;;;;;18.42;67.03;97223.19;5073561;28;20031;-66
2021/10/03 07:41:07;;;;;;;11.38;5.43;;;;;;;18.41;66.51;97225.97;5072626;28;20012;-66
2021/10/03 07:43:33;;;;;;;10.82;5.43;;;;;;;18.44;66.32;97231.06;5070351;28;20012;-66
2021/10/03 07:45:59;;;;;;;10.52;5.60;;;;;;;18.43;66.82;97234.69;5072394;28;20020;-66
2021/10/03 07:48:25;;;;;;;11.63;5.10;;;;;;;18.37;67.78;97229.81;5073482;28;20059;-66
2021/10/03 07:50:50;;;;;;;13.45;5.63;;;;;;;18.41;66.89;97239.28;5075266;28;20021;-66
2021/10/03 07:53:15;;;;;;;14.13;5.65;;;;;;;18.37;67.52;97235.16;5074891;28;20024;-66
2021/10/03 07:55:43;;;;;;;8.48;4.95;;;;;;;18.41;66.81;97236.63;5076885;28;20020;-66
2021/10/03 07:58:09;;;;;;;10.48;5.57;;;;;;;18.39;67.96;97239.41;5075479;28;20021;-66
2021/10/03 08:00:35;;;;;;;14.40;5.35;;;;;;;18.35;67.44;97243.22;5075914;28;20024;-66
2021/10/03 08:03:01;;;;;;;11.95;5.85;;;;;;;18.40;66.44;97245.59;5070927;28;20009;-66
2021/10/03 08:05:27;;;;;;;15.80;5.88;;;;;;;18.45;66.81;97238.13;5066147;28;20060;-66
2021/10/03 08:07:52;;;;;;;10.25;5.25;;;;;;;18.35;68.84;97253.03;5064842;28;20320;-68
2021/10/03 08:10:18;;;;;;;11.98;5.78;;;;;;;18.43;67.12;97248.88;5075324;28;20017;-67
2021/10/03 08:12:43;;;;;;;10.13;4.97;;;;;;;18.42;67.84;97244.50;5077534;28;20016;-68
2021/10/03 08:15:10;;;;;;;10.88;4.78;;;;;;;18.37;69.25;97235.16;5071795;28;20066;-67
2021/10/03 08:17:36;;;;;;;10.90;5.57;;;;;;;18.34;69.09;97245.97;5070762;28;20312;-67
2021/10/03 08:20:01;;;;;;;9.70;5.57;;;;;;;18.35;68.58;97237.06;5064996;28;20056;-67
2021/10/03 08:22:26;;;;;;;9.25;5.38;;;;;;;18.39;68.16;97243.88;5064626;28;20119;-67
2021/10/03 08:24:52;;;;;;;12.15;4.90;;;;;;;18.41;68.94;97244.59;5065163;28;20032;-67
2021/10/03 08:27:17;;;;;;;12.82;6.07;;;;;;;18.38;68.86;97236.88;5076686;28;20096;-67
2021/10/03 08:29:43;;;;;;;16.00;5.60;;;;;;;18.48;67.75;97251.22;5079925;28;20319;-67
2021/10/03 08:32:08;;;;;;;12.52;5.72;;;;;;;18.54;67.82;97242.78;5080321;28;20029;-67
2021/10/03 08:34:33;;;;;;;9.05;5.03;;;;;;;18.59;67.30;97248.63;5080367;28;20016;-67
2021/10/03 08:36:59;;;;;;;10.52;4.70;;;;;;;18.58;67.34;97255.75;5079423;28;20268;-67
2021/10/03 08:39:24;;;;;;;13.80;5.40;;;;;;;18.63;68.65;97263.41;5074442;28;20027;-67
2021/10/03 08:41:50;;;;;;;10.43;5.35;;;;;;;18.63;69.97;97258.06;5073692;28;20329;-67
2021/10/03 08:44:15;;;;;;;12.10;5.30;;;;;;;18.59;68.20;97256.59;5074236;28;20028;-67
2021/10/03 08:46:42;;;;;;;11.00;5.22;;;;;;;18.60;69.06;97266.28;5072463;28;20024;-67
2021/10/03 08:49:07;;;;;;;17.05;5.20;;;;;;;18.54;69.31;97261.44;5074119;28;20025;-67
2021/10/03 08:51:33;;;;;;;14.82;6.03;;;;;;;18.50;69.04;97257.28;5076161;28;20040;-67
2021/10/03 08:53:59;;;;;;;12.82;6.07;;;;;;;18.48;69.26;97262.72;5069676;28;20016;-68
2021/10/03 08:56:25;;;;;;;13.70;5.68;;;;;;;18.45;69.43;97256.78;5077316;28;20025;-68
2021/10/03 08:58:51;;;;;;;14.68;6.30;;;;;;;18.43;69.97;97267.53;5067461;28;20044;-68
2021/10/03 09:01:18;;;;;;;10.77;5.47;;;;;;;18.40;70.35;97266.88;5078870;28;20050;-67
2021/10/03 09:03:44;;;;;;;9.95;5.05;;;;;;;18.43;69.71;97264.00;5080489;28;20037;-67
2021/10/03 09:06:10;;;;;;;10.27;5.50;;;;;;;18.44;71.55;97268.38;5076498;28;20012;-66
2021/10/03 09:08:38;;;;;;;9.00;5.15;;;;;;;18.43;70.09;97264.00;5070606;28;20019;-66
2021/10/03 09:11:10;;;;;;;9.02;5.28;;;;;;;18.45;69.60;97259.44;5075378;28;20021;-67
2021/10/03 09:13:35;;;;;;;10.77;5.53;;;;;;;18.44;71.46;97247.06;5081763;28;20027;-67
2021/10/03 09:16:33;;;;;;;15.23;5.88;;;;;;;18.39;71.20;97257.22;5068783;28;20041;-67
2021/10/03 09:19:10;;;;;;;11.13;5.28;;;;;;;18.40;71.51;97261.56;5077744;28;20246;-65
2021/10/03 09:21:42;;;;;;;10.95;5.18;;;;;;;18.43;72.55;97272.00;5080830;28;20066;-66
2021/10/03 09:24:15;;;;;;;12.60;5.20;;;;;;;18.49;74.74;97276.88;5071977;28;20368;-66
2021/10/03 09:27:16;;;;;;;8.88;5.40;;;;;;;18.46;77.81;97282.44;5076173;28;20090;-66
2021/10/03 09:29:41;;;;;;;12.48;5.88;;;;;;;18.51;79.22;97290.97;5066447;28;20052;-66
2021/10/03 09:32:25;;;;;;;9.32;5.50;;;;;;;18.53;79.71;97289.03;5047649;28;20083;-66
2021/10/03 09:34:52;;;;;;;11.85;6.15;;;;;;;18.56;80.76;97295.00;5064143;28;20031;-66
2021/10/03 09:37:29;;;;;;;10.38;5.60;;;;;;;18.61;80.21;97286.66;5064073;28;20044;-66
2021/10/03 09:40:08;;;;;;;13.55;5.75;;;;;;;18.58;77.80;97282.38;5065269;28;20032;-66
2021/10/03 09:42:34;;;;;;;15.15;6.30;;;;;;;18.58;77.60;97274.41;5069350;28;20091;-66
2021/10/03 09:45:02;;;;;;;10.23;6.30;;;;;;;18.56;78.60;97275.47;5071588;28;20033;-66
2021/10/03 09:47:28;;;;;;;9.70;5.45;;;;;;;18.59;74.82;97284.13;5068683;28;20025;-66
2021/10/03 09:49:54;;;;;;;15.93;6.28;;;;;;;18.64;73.74;97289.13;5080555;28;20205;-66
2021/10/03 09:52:20;;;;;;;11.57;6.10;;;;;;;18.66;76.93;97285.38;5060259;28;20032;-66
2021/10/03 09:54:47;;;;;;;11.57;5.65;;;;;;;18.58;80.12;97279.72;5066014;28;20033;-66
2021/10/03 09:57:17;;;;;;;12.65;6.68;;;;;;;18.61;79.58;97276.00;5068484;28;20059;-66
2021/10/03 09:59:45;;;;;;;15.02;6.38;;;;;;;18.67;78.01;97280.91;5083653;28;20028;-66
2021/10/03 10:02:15;;;;;;;18.30;6.47;;;;;;;18.62;80.90;97283.03;5083588;28;20024;-66
2021/10/03 10:04:42;;;;;;;11.80;6.80;;;;;;;18.57;80.51;97279.88;5084859;28;20048;-66
2021/10/03 10:07:09;;;;;;;10.75;6.35;;;;;;;18.56;83.22;97275.47;5084662;28;20215;-67
2021/10/03 10:09:35;;;;;;;12.20;6.18;;;;;;;18.42;79.73;97268.47;5077647;28;20081;-67
2021/10/03 10:12:19;;;;;;;15.82;7.28;;;;;;;18.39;82.78;97270.53;5073263;28;20297;-67
2021/10/03 10:14:55;;;;;;;12.52;6.10;;;;;;;18.38;80.78;97258.19;5067840;28;20231;-67
2021/10/03 10:17:27;;;;;;;14.88;6.90;;;;;;;18.37;80.15;97251.13;5081002;28;20043;-67
2021/10/03 10:19:55;;;;;;;13.60;6.93;;;;;;;18.45;80.54;97246.94;5073184;28;20223;-67
2021/10/03 10:22:24;;;;;;;13.52;6.30;;;;;;;18.42;79.38;97249.00;5081695;28;20192;-67
2021/10/03 10:24:52;;;;;;;12.02;6.25;;;;;;;18.43;77.41;97235.56;5081879;28;20047;-67
2021/10/03 10:27:21;;;;;;;14.40;6.65;;;;;;;18.41;79.45;97232.16;5070816;28;20067;-67
2021/10/03 10:29:51;;;;;;;10.10;5.95;;;;;;;18.42;79.49;97233.00;5065412;28;20076;-66
2021/10/03 10:32:17;;;;;;;9.77;6.07;;;;;;;18.40;78.16;97224.28;5061516;28;20082;-66
2021/10/03 10:35:07;;;;;;;14.38;6.45;;;;;;;18.37;84.30;97235.16;5073177;28;20040;-66
2021/10/03 10:37:54;;;;;;;13.02;6.63;;;;;;;18.37;85.85;97245.81;5061643;28;20030;-66
2021/10/03 10:40:23;;;;;;;10.68;5.95;;;;;;;18.38;85.54;97276.81;5063004;28;20026;-66
2021/10/03 10:42:53;;;;;;;12.98;6.03;;;;;;;18.46;81.12;97271.78;5077884;28;20327;-66
2021/10/03 10:45:41;;;;;;;14.00;6.47;;;;;;;18.54;82.05;97264.09;5065820;28;20081;-66
2021/10/03 10:48:06;;;;;;;11.48;5.78;;;;;;;18.65;80.41;97274.81;5065231;28;20028;-66
2021/10/03 10:50:32;;;;;;;8.98;5.55;;;;;;;18.77;76.40;97265.94;5063471;28;20059;-66
2021/10/03 10:53:17;;;;;;;13.52;6.05;;;;;;;18.90;80.05;97278.25;5064489;28;20028;-66
2021/10/03 10:56:01;;;;;;;10.85;5.72;;;;;;;19.06;77.92;97256.63;5077452;28;20012;-66
2021/10/03 10:58:28;;;;;;;8.55;5.32;;;;;;;19.22;73.94;97257.16;5058200;28;20016;-66
2021/10/03 11:00:58;;;;;;;9.18;5.30;;;;;;;19.41;76.91;97261.97;5080077;28;20207;-66
2021/10/03 11:03:42;;;;;;;10.05;5.53;;;;;;;19.60;75.97;97262.28;5079902;28;20106;-66
2021/10/03 11:06:08;;;;;;;14.13;6.10;;;;;;;19.70;75.00;97264.13;5064350;28;20027;-66
2021/10/03 11:08:59;;;;;;;10.60;5.55;;;;;;;19.76;76.26;97258.31;5062683;28;20032;-66
2021/10/03 11:11:31;;;;;;;15.30;6.28;;;;;;;19.75;78.46;97264.63;5072042;28;20044;-66
2021/10/03 11:13:58;;;;;;;13.53;5.23;;;;;;;19.69;76.87;97267.78;5083219;28;20347;-66
2021/10/03 11:16:26;;;;;;;11.85;5.95;;;;;;;19.63;78.02;97273.59;5083434;28;20492;-66
2021/10/03 11:18:58;;;;;;;10.15;5.57;;;;;;;19.68;77.12;97266.06;5083112;28;20020;-66
2021/10/03 11:21:29;;;;;;;8.25;4.85;;;;;;;19.70;76.52;97274.81;5082711;28;20027;-66
2021/10/03 11:23:57;;;;;;;10.20;5.27;;;;;;;19.68;78.31;97271.41;5079840;28;20025;-66
2021/10/03 11:26:23;;;;;;;9.40;5.50;;;;;;;19.63;74.40;97273.59;5083030;28;20327;-66